sensor_id;sensor_type;location;lat;lon;timestamp;P1;durP1;ratioP1;P2;durP2;ratioP2
76053;SDS011;64752;48.870;9.082;2023-03-17T00:01:51;9.88;;;5.90;;
76053;SDS011;64752;48.870;9.082;2023-03-17T00:04:18;10.95;;;4.97;;
76053;SDS011;64752;48.870;9.082;2023-03-17T00:06:44;8.05;;;4.82;;
76053;SDS011;64752;48.870;9.082;2023-03-17T00:09:11;8.63;;;5.13;;
76053;SDS011;64752;48.870;9.082;2023-03-17T00:11:38;7.93;;;5.00;;
76053;SDS011;64752;48.870;9.082;2023-03-17T00:14:03;9.98;;;5.35;;
76053;SDS011;64752;48.870;9.082;2023-03-17T00:16:28;9.43;;;5.25;;
76053;SDS011;64752;48.870;9.082;2023-03-17T00:18:56;8.10;;;5.18;;
76053;SDS011;64752;48.870;9.082;2023-03-17T00:21:29;11.85;;;4.35;;
76053;SDS011;64752;48.870;9.082;2023-03-17T00:23:55;8.10;;;4.72;;
76053;SDS011;64752;48.870;9.082;2023-03-17T00:26:20;9.07;;;5.28;;
76053;SDS011;64752;48.870;9.082;2023-03-17T00:28:46;8.65;;;5.13;;
76053;SDS011;64752;48.870;9.082;2023-03-17T00:31:13;10.88;;;5.03;;
76053;SDS011;64752;48.870;9.082;2023-03-17T00:33:39;8.18;;;4.78;;
76053;SDS011;64752;48.870;9.082;2023-03-17T00:36:04;7.50;;;4.82;;
76053;SDS011;64752;48.870;9.082;2023-03-17T00:38:30;11.07;;;4.93;;
76053;SDS011;64752;48.870;9.082;2023-03-17T00:40:55;8.98;;;5.00;;
76053;SDS011;64752;48.870;9.082;2023-03-17T00:43:21;8.80;;;5.10;;
76053;SDS011;64752;48.870;9.082;2023-03-17T00:45:46;8.23;;;4.50;;
76053;SDS011;64752;48.870;9.082;2023-03-17T00:48:15;7.93;;;4.93;;
76053;SDS011;64752;48.870;9.082;2023-03-17T00:50:41;7.97;;;5.05;;
76053;SDS011;64752;48.870;9.082;2023-03-17T00:53:08;8.40;;;5.35;;
76053;SDS011;64752;48.870;9.082;2023-03-17T00:55:34;10.13;;;4.97;;
76053;SDS011;64752;48.870;9.082;2023-03-17T00:58:00;7.90;;;5.00;;
76053;SDS011;64752;48.870;9.082;2023-03-17T01:00:27;9.27;;;4.65;;
76053;SDS011;64752;48.870;9.082;2023-03-17T01:02:53;8.77;;;4.50;;
76053;SDS011;64752;48.870;9.082;2023-03-17T01:05:19;11.90;;;4.73;;
76053;SDS011;64752;48.870;9.082;2023-03-17T01:07:46;6.97;;;4.38;;
76053;SDS011;64752;48.870;9.082;2023-03-17T01:10:17;9.52;;;4.80;;
76053;SDS011;64752;48.870;9.082;2023-03-17T01:12:43;7.65;;;4.32;;
76053;SDS011;64752;48.870;9.082;2023-03-17T01:15:09;6.85;;;4.22;;
76053;SDS011;64752;48.870;9.082;2023-03-17T01:17:35;8.68;;;4.97;;
76053;SDS011;64752;48.870;9.082;2023-03-17T01:20:02;8.90;;;4.93;;
76053;SDS011;64752;48.870;9.082;2023-03-17T01:22:29;7.93;;;4.57;;
76053;SDS011;64752;48.870;9.082;2023-03-17T01:24:54;8.60;;;5.05;;
76053;SDS011;64752;48.870;9.082;2023-03-17T01:27:20;8.13;;;4.60;;
76053;SDS011;64752;48.870;9.082;2023-03-17T01:29:45;10.90;;;5.20;;
76053;SDS011;64752;48.870;9.082;2023-03-17T01:32:11;7.72;;;4.65;;
76053;SDS011;64752;48.870;9.082;2023-03-17T01:34:36;7.90;;;4.72;;
76053;SDS011;64752;48.870;9.082;2023-03-17T01:37:02;7.45;;;4.50;;
76053;SDS011;64752;48.870;9.082;2023-03-17T01:39:27;6.97;;;4.18;;
76053;SDS011;64752;48.870;9.082;2023-03-17T01:41:52;6.93;;;4.40;;
76053;SDS011;64752;48.870;9.082;2023-03-17T01:44:21;8.77;;;4.15;;
76053;SDS011;64752;48.870;9.082;2023-03-17T01:46:46;8.68;;;4.82;;
76053;SDS011;64752;48.870;9.082;2023-03-17T01:54:19;8.73;;;4.75;;
76053;SDS011;64752;48.870;9.082;2023-03-17T01:56:46;7.75;;;4.28;;
76053;SDS011;64752;48.870;9.082;2023-03-17T01:59:15;8.70;;;4.80;;
76053;SDS011;64752;48.870;9.082;2023-03-17T02:01:42;8.77;;;5.05;;
76053;SDS011;64752;48.870;9.082;2023-03-17T02:04:09;8.23;;;4.70;;
76053;SDS011;64752;48.870;9.082;2023-03-17T02:06:35;9.60;;;5.22;;
76053;SDS011;64752;48.870;9.082;2023-03-17T02:09:00;8.68;;;5.15;;
76053;SDS011;64752;48.870;9.082;2023-03-17T02:11:26;7.80;;;5.13;;
76053;SDS011;64752;48.870;9.082;2023-03-17T02:13:52;8.03;;;5.23;;
76053;SDS011;64752;48.870;9.082;2023-03-17T02:16:17;9.00;;;5.80;;
76053;SDS011;64752;48.870;9.082;2023-03-17T02:18:42;8.95;;;5.05;;
76053;SDS011;64752;48.870;9.082;2023-03-17T02:23:52;9.13;;;5.20;;
76053;SDS011;64752;48.870;9.082;2023-03-17T02:26:17;11.60;;;5.43;;
76053;SDS011;64752;48.870;9.082;2023-03-17T02:28:44;7.95;;;5.05;;
76053;SDS011;64752;48.870;9.082;2023-03-17T02:31:10;10.52;;;5.93;;
76053;SDS011;64752;48.870;9.082;2023-03-17T02:33:36;10.73;;;5.80;;
76053;SDS011;64752;48.870;9.082;2023-03-17T02:36:01;11.18;;;5.50;;
76053;SDS011;64752;48.870;9.082;2023-03-17T02:38:27;8.77;;;5.30;;
76053;SDS011;64752;48.870;9.082;2023-03-17T02:40:52;9.65;;;5.00;;
76053;SDS011;64752;48.870;9.082;2023-03-17T02:43:17;8.40;;;4.88;;
76053;SDS011;64752;48.870;9.082;2023-03-17T02:45:42;6.40;;;4.15;;
76053;SDS011;64752;48.870;9.082;2023-03-17T02:48:07;8.17;;;5.47;;
76053;SDS011;64752;48.870;9.082;2023-03-17T02:50:33;9.55;;;5.00;;
76053;SDS011;64752;48.870;9.082;2023-03-17T02:52:58;7.18;;;4.60;;
76053;SDS011;64752;48.870;9.082;2023-03-17T02:55:24;9.48;;;5.38;;
76053;SDS011;64752;48.870;9.082;2023-03-17T02:57:50;7.82;;;4.80;;
76053;SDS011;64752;48.870;9.082;2023-03-17T03:00:16;9.63;;;5.40;;
76053;SDS011;64752;48.870;9.082;2023-03-17T03:02:41;9.30;;;5.13;;
76053;SDS011;64752;48.870;9.082;2023-03-17T03:05:06;7.97;;;5.05;;
76053;SDS011;64752;48.870;9.082;2023-03-17T03:07:33;10.73;;;5.18;;
76053;SDS011;64752;48.870;9.082;2023-03-17T03:09:58;7.30;;;4.70;;
76053;SDS011;64752;48.870;9.082;2023-03-17T03:12:23;9.15;;;5.20;;
76053;SDS011;64752;48.870;9.082;2023-03-17T03:14:49;10.70;;;5.22;;
76053;SDS011;64752;48.870;9.082;2023-03-17T03:17:14;7.57;;;4.93;;
76053;SDS011;64752;48.870;9.082;2023-03-17T03:19:40;13.10;;;5.03;;
76053;SDS011;64752;48.870;9.082;2023-03-17T03:22:05;8.10;;;4.90;;
76053;SDS011;64752;48.870;9.082;2023-03-17T03:24:31;9.60;;;4.63;;
76053;SDS011;64752;48.870;9.082;2023-03-17T03:26:56;8.00;;;5.07;;
76053;SDS011;64752;48.870;9.082;2023-03-17T03:29:21;10.60;;;5.60;;
76053;SDS011;64752;48.870;9.082;2023-03-17T03:31:46;8.63;;;5.50;;
76053;SDS011;64752;48.870;9.082;2023-03-17T03:34:12;9.20;;;5.63;;
76053;SDS011;64752;48.870;9.082;2023-03-17T03:36:38;9.10;;;5.70;;
76053;SDS011;64752;48.870;9.082;2023-03-17T03:39:03;9.70;;;5.30;;
76053;SDS011;64752;48.870;9.082;2023-03-17T03:41:28;9.05;;;5.20;;
76053;SDS011;64752;48.870;9.082;2023-03-17T03:43:53;8.38;;;5.50;;
76053;SDS011;64752;48.870;9.082;2023-03-17T03:46:19;9.35;;;5.97;;
76053;SDS011;64752;48.870;9.082;2023-03-17T03:48:44;9.73;;;6.00;;
76053;SDS011;64752;48.870;9.082;2023-03-17T03:51:09;10.73;;;5.95;;
76053;SDS011;64752;48.870;9.082;2023-03-17T03:53:34;9.25;;;5.50;;
76053;SDS011;64752;48.870;9.082;2023-03-17T03:56:00;10.77;;;5.45;;
76053;SDS011;64752;48.870;9.082;2023-03-17T03:58:25;10.73;;;5.80;;
76053;SDS011;64752;48.870;9.082;2023-03-17T04:00:51;8.30;;;5.40;;
76053;SDS011;64752;48.870;9.082;2023-03-17T04:03:16;10.55;;;6.05;;
76053;SDS011;64752;48.870;9.082;2023-03-17T04:05:41;9.10;;;5.85;;
76053;SDS011;64752;48.870;9.082;2023-03-17T04:08:07;10.32;;;6.30;;
76053;SDS011;64752;48.870;9.082;2023-03-17T04:10:33;11.57;;;6.07;;
76053;SDS011;64752;48.870;9.082;2023-03-17T04:12:58;10.07;;;5.80;;
76053;SDS011;64752;48.870;9.082;2023-03-17T04:15:23;8.75;;;5.90;;
76053;SDS011;64752;48.870;9.082;2023-03-17T04:17:48;8.95;;;5.60;;
76053;SDS011;64752;48.870;9.082;2023-03-17T04:20:14;16.38;;;6.47;;
76053;SDS011;64752;48.870;9.082;2023-03-17T04:22:40;9.77;;;6.47;;
76053;SDS011;64752;48.870;9.082;2023-03-17T04:25:09;10.15;;;5.60;;
76053;SDS011;64752;48.870;9.082;2023-03-17T04:27:35;9.00;;;5.88;;
76053;SDS011;64752;48.870;9.082;2023-03-17T04:30:00;11.05;;;6.07;;
76053;SDS011;64752;48.870;9.082;2023-03-17T04:32:26;9.63;;;6.20;;
76053;SDS011;64752;48.870;9.082;2023-03-17T04:34:51;10.38;;;5.63;;
76053;SDS011;64752;48.870;9.082;2023-03-17T04:37:16;10.05;;;5.82;;
76053;SDS011;64752;48.870;9.082;2023-03-17T04:39:42;9.63;;;5.47;;
76053;SDS011;64752;48.870;9.082;2023-03-17T04:42:07;10.02;;;5.97;;
76053;SDS011;64752;48.870;9.082;2023-03-17T04:44:33;10.55;;;6.30;;
76053;SDS011;64752;48.870;9.082;2023-03-17T04:46:59;10.38;;;6.25;;
76053;SDS011;64752;48.870;9.082;2023-03-17T04:49:24;11.07;;;5.95;;
76053;SDS011;64752;48.870;9.082;2023-03-17T04:51:50;10.07;;;5.78;;
76053;SDS011;64752;48.870;9.082;2023-03-17T04:54:15;7.80;;;5.28;;
76053;SDS011;64752;48.870;9.082;2023-03-17T04:56:40;9.57;;;6.50;;
76053;SDS011;64752;48.870;9.082;2023-03-17T04:59:05;8.40;;;5.70;;
76053;SDS011;64752;48.870;9.082;2023-03-17T05:01:31;8.55;;;5.55;;
76053;SDS011;64752;48.870;9.082;2023-03-17T05:03:56;11.90;;;5.88;;
76053;SDS011;64752;48.870;9.082;2023-03-17T05:06:21;8.50;;;5.75;;
76053;SDS011;64752;48.870;9.082;2023-03-17T05:08:47;10.15;;;5.82;;
76053;SDS011;64752;48.870;9.082;2023-03-17T05:11:12;13.38;;;6.50;;
76053;SDS011;64752;48.870;9.082;2023-03-17T05:13:37;8.90;;;6.10;;
76053;SDS011;64752;48.870;9.082;2023-03-17T05:16:05;10.75;;;6.03;;
76053;SDS011;64752;48.870;9.082;2023-03-17T05:18:30;10.68;;;6.45;;
76053;SDS011;64752;48.870;9.082;2023-03-17T05:20:55;10.15;;;6.32;;
76053;SDS011;64752;48.870;9.082;2023-03-17T05:23:21;12.32;;;7.32;;
76053;SDS011;64752;48.870;9.082;2023-03-17T05:25:47;55.83;;;31.90;;
76053;SDS011;64752;48.870;9.082;2023-03-17T05:28:12;47.50;;;28.55;;
76053;SDS011;64752;48.870;9.082;2023-03-17T05:30:38;20.85;;;13.52;;
76053;SDS011;64752;48.870;9.082;2023-03-17T05:33:03;16.83;;;10.50;;
76053;SDS011;64752;48.870;9.082;2023-03-17T05:35:29;10.38;;;7.38;;
76053;SDS011;64752;48.870;9.082;2023-03-17T05:37:54;11.65;;;6.50;;
76053;SDS011;64752;48.870;9.082;2023-03-17T05:40:19;9.90;;;6.28;;
76053;SDS011;64752;48.870;9.082;2023-03-17T05:42:44;12.18;;;6.18;;
76053;SDS011;64752;48.870;9.082;2023-03-17T05:45:10;13.13;;;5.72;;
76053;SDS011;64752;48.870;9.082;2023-03-17T05:47:35;9.13;;;5.97;;
76053;SDS011;64752;48.870;9.082;2023-03-17T05:50:01;11.10;;;6.50;;
76053;SDS011;64752;48.870;9.082;2023-03-17T05:52:27;12.13;;;6.22;;
76053;SDS011;64752;48.870;9.082;2023-03-17T05:54:53;9.55;;;6.20;;
76053;SDS011;64752;48.870;9.082;2023-03-17T05:57:18;11.40;;;6.60;;
76053;SDS011;64752;48.870;9.082;2023-03-17T05:59:44;11.60;;;6.82;;
76053;SDS011;64752;48.870;9.082;2023-03-17T06:02:09;11.63;;;6.38;;
76053;SDS011;64752;48.870;9.082;2023-03-17T06:04:35;12.38;;;6.60;;
76053;SDS011;64752;48.870;9.082;2023-03-17T06:07:00;10.55;;;6.10;;
76053;SDS011;64752;48.870;9.082;2023-03-17T06:09:26;11.40;;;5.82;;
76053;SDS011;64752;48.870;9.082;2023-03-17T06:11:52;13.77;;;6.28;;
76053;SDS011;64752;48.870;9.082;2023-03-17T06:14:17;9.52;;;5.90;;
76053;SDS011;64752;48.870;9.082;2023-03-17T06:16:42;7.90;;;5.72;;
76053;SDS011;64752;48.870;9.082;2023-03-17T06:19:07;10.43;;;6.45;;
76053;SDS011;64752;48.870;9.082;2023-03-17T06:21:33;8.63;;;6.07;;
76053;SDS011;64752;48.870;9.082;2023-03-17T06:23:58;11.50;;;6.57;;
76053;SDS011;64752;48.870;9.082;2023-03-17T06:26:23;10.80;;;6.95;;
76053;SDS011;64752;48.870;9.082;2023-03-17T06:28:48;10.98;;;6.03;;
76053;SDS011;64752;48.870;9.082;2023-03-17T06:31:13;13.10;;;5.68;;
76053;SDS011;64752;48.870;9.082;2023-03-17T06:33:39;10.48;;;5.88;;
76053;SDS011;64752;48.870;9.082;2023-03-17T06:36:04;11.88;;;6.00;;
76053;SDS011;64752;48.870;9.082;2023-03-17T06:38:30;9.00;;;6.00;;
76053;SDS011;64752;48.870;9.082;2023-03-17T06:40:55;14.57;;;5.57;;
76053;SDS011;64752;48.870;9.082;2023-03-17T06:43:21;13.27;;;5.88;;
76053;SDS011;64752;48.870;9.082;2023-03-17T06:45:48;9.65;;;5.60;;
76053;SDS011;64752;48.870;9.082;2023-03-17T06:48:13;12.57;;;5.63;;
76053;SDS011;64752;48.870;9.082;2023-03-17T06:50:39;9.73;;;5.05;;
76053;SDS011;64752;48.870;9.082;2023-03-17T06:53:04;7.75;;;4.95;;
76053;SDS011;64752;48.870;9.082;2023-03-17T06:55:29;9.80;;;4.35;;
76053;SDS011;64752;48.870;9.082;2023-03-17T06:57:55;8.70;;;4.35;;
76053;SDS011;64752;48.870;9.082;2023-03-17T07:00:20;12.02;;;4.90;;
76053;SDS011;64752;48.870;9.082;2023-03-17T07:02:47;9.98;;;4.13;;
76053;SDS011;64752;48.870;9.082;2023-03-17T07:05:13;7.07;;;4.55;;
76053;SDS011;64752;48.870;9.082;2023-03-17T07:07:39;6.20;;;4.20;;
76053;SDS011;64752;48.870;9.082;2023-03-17T07:10:05;9.00;;;4.75;;
76053;SDS011;64752;48.870;9.082;2023-03-17T07:12:30;7.95;;;3.83;;
76053;SDS011;64752;48.870;9.082;2023-03-17T07:14:57;8.00;;;4.53;;
76053;SDS011;64752;48.870;9.082;2023-03-17T07:17:22;7.77;;;4.70;;
76053;SDS011;64752;48.870;9.082;2023-03-17T07:19:47;8.15;;;4.47;;
76053;SDS011;64752;48.870;9.082;2023-03-17T07:22:13;6.67;;;4.50;;
76053;SDS011;64752;48.870;9.082;2023-03-17T07:24:38;10.10;;;4.60;;
76053;SDS011;64752;48.870;9.082;2023-03-17T07:27:05;10.23;;;5.65;;
76053;SDS011;64752;48.870;9.082;2023-03-17T07:29:31;13.17;;;6.10;;
76053;SDS011;64752;48.870;9.082;2023-03-17T07:31:57;11.13;;;6.90;;
76053;SDS011;64752;48.870;9.082;2023-03-17T07:34:23;11.03;;;6.53;;
76053;SDS011;64752;48.870;9.082;2023-03-17T07:36:48;14.57;;;6.57;;
76053;SDS011;64752;48.870;9.082;2023-03-17T07:39:13;12.20;;;7.23;;
76053;SDS011;64752;48.870;9.082;2023-03-17T07:41:39;10.10;;;5.87;;
76053;SDS011;64752;48.870;9.082;2023-03-17T07:44:06;9.23;;;5.60;;
76053;SDS011;64752;48.870;9.082;2023-03-17T07:46:33;11.43;;;5.40;;
76053;SDS011;64752;48.870;9.082;2023-03-17T07:48:58;11.67;;;5.10;;
76053;SDS011;64752;48.870;9.082;2023-03-17T07:51:24;9.77;;;5.00;;
76053;SDS011;64752;48.870;9.082;2023-03-17T07:53:52;8.88;;;4.93;;
76053;SDS011;64752;48.870;9.082;2023-03-17T07:56:19;10.35;;;5.97;;
76053;SDS011;64752;48.870;9.082;2023-03-17T07:58:45;10.30;;;6.00;;
76053;SDS011;64752;48.870;9.082;2023-03-17T08:01:11;8.73;;;5.40;;
76053;SDS011;64752;48.870;9.082;2023-03-17T08:03:36;8.47;;;5.63;;
76053;SDS011;64752;48.870;9.082;2023-03-17T08:06:01;10.00;;;5.90;;
76053;SDS011;64752;48.870;9.082;2023-03-17T08:08:27;11.40;;;6.17;;
76053;SDS011;64752;48.870;9.082;2023-03-17T08:10:56;11.27;;;6.23;;
76053;SDS011;64752;48.870;9.082;2023-03-17T08:13:22;16.88;;;5.95;;
76053;SDS011;64752;48.870;9.082;2023-03-17T08:15:47;8.67;;;5.20;;
76053;SDS011;64752;48.870;9.082;2023-03-17T08:18:12;12.20;;;5.57;;
76053;SDS011;64752;48.870;9.082;2023-03-17T08:20:38;9.40;;;5.03;;
76053;SDS011;64752;48.870;9.082;2023-03-17T08:23:03;7.90;;;4.90;;
76053;SDS011;64752;48.870;9.082;2023-03-17T08:25:28;7.90;;;5.00;;
76053;SDS011;64752;48.870;9.082;2023-03-17T08:27:53;8.63;;;5.40;;
76053;SDS011;64752;48.870;9.082;2023-03-17T08:30:20;8.87;;;5.23;;
76053;SDS011;64752;48.870;9.082;2023-03-17T08:32:46;11.00;;;5.30;;
76053;SDS011;64752;48.870;9.082;2023-03-17T08:35:12;7.95;;;4.78;;
76053;SDS011;64752;48.870;9.082;2023-03-17T08:37:40;8.05;;;4.63;;
76053;SDS011;64752;48.870;9.082;2023-03-17T08:40:05;9.17;;;4.50;;
76053;SDS011;64752;48.870;9.082;2023-03-17T08:42:33;13.13;;;4.32;;
76053;SDS011;64752;48.870;9.082;2023-03-17T08:44:59;9.33;;;4.27;;
76053;SDS011;64752;48.870;9.082;2023-03-17T08:47:24;8.67;;;4.30;;
76053;SDS011;64752;48.870;9.082;2023-03-17T08:49:49;10.10;;;4.17;;
76053;SDS011;64752;48.870;9.082;2023-03-17T08:52:15;10.80;;;3.87;;
76053;SDS011;64752;48.870;9.082;2023-03-17T08:54:40;8.07;;;3.90;;
76053;SDS011;64752;48.870;9.082;2023-03-17T08:57:06;10.02;;;4.25;;
76053;SDS011;64752;48.870;9.082;2023-03-17T08:59:31;8.03;;;4.80;;
76053;SDS011;64752;48.870;9.082;2023-03-17T09:01:57;8.57;;;4.70;;
76053;SDS011;64752;48.870;9.082;2023-03-17T09:04:23;10.80;;;4.90;;
76053;SDS011;64752;48.870;9.082;2023-03-17T09:06:49;6.82;;;4.25;;
76053;SDS011;64752;48.870;9.082;2023-03-17T09:09:15;7.47;;;4.00;;
76053;SDS011;64752;48.870;9.082;2023-03-17T09:11:41;7.63;;;4.15;;
76053;SDS011;64752;48.870;9.082;2023-03-17T09:14:07;7.65;;;3.65;;
76053;SDS011;64752;48.870;9.082;2023-03-17T09:16:33;7.07;;;3.17;;
76053;SDS011;64752;48.870;9.082;2023-03-17T09:18:58;9.80;;;3.80;;
76053;SDS011;64752;48.870;9.082;2023-03-17T09:21:24;7.37;;;3.60;;
76053;SDS011;64752;48.870;9.082;2023-03-17T09:23:49;8.40;;;3.63;;
76053;SDS011;64752;48.870;9.082;2023-03-17T09:26:14;9.20;;;4.03;;
76053;SDS011;64752;48.870;9.082;2023-03-17T09:28:40;9.95;;;4.05;;
76053;SDS011;64752;48.870;9.082;2023-03-17T09:31:06;7.93;;;4.20;;
76053;SDS011;64752;48.870;9.082;2023-03-17T09:33:35;7.18;;;3.88;;
76053;SDS011;64752;48.870;9.082;2023-03-17T09:36:00;6.37;;;3.83;;
76053;SDS011;64752;48.870;9.082;2023-03-17T09:38:26;8.77;;;3.93;;
76053;SDS011;64752;48.870;9.082;2023-03-17T09:44:05;8.48;;;3.58;;
76053;SDS011;64752;48.870;9.082;2023-03-17T09:46:27;5.55;;;3.58;;
76053;SDS011;64752;48.870;9.082;2023-03-17T09:48:58;7.15;;;4.20;;
76053;SDS011;64752;48.870;9.082;2023-03-17T09:51:25;7.22;;;3.70;;
76053;SDS011;64752;48.870;9.082;2023-03-17T09:54:12;9.45;;;4.20;;
76053;SDS011;64752;48.870;9.082;2023-03-17T09:56:40;10.40;;;3.85;;
76053;SDS011;64752;48.870;9.082;2023-03-17T10:01:44;8.80;;;3.85;;
76053;SDS011;64752;48.870;9.082;2023-03-17T10:04:10;8.30;;;3.95;;
76053;SDS011;64752;48.870;9.082;2023-03-17T10:06:40;11.50;;;3.50;;
76053;SDS011;64752;48.870;9.082;2023-03-17T10:09:11;7.53;;;3.60;;
76053;SDS011;64752;48.870;9.082;2023-03-17T10:16:52;6.60;;;3.17;;
76053;SDS011;64752;48.870;9.082;2023-03-17T10:21:57;4.43;;;2.72;;
76053;SDS011;64752;48.870;9.082;2023-03-17T10:24:23;6.93;;;3.28;;
76053;SDS011;64752;48.870;9.082;2023-03-17T10:26:49;6.50;;;3.08;;
76053;SDS011;64752;48.870;9.082;2023-03-17T10:29:18;7.50;;;3.05;;
76053;SDS011;64752;48.870;9.082;2023-03-17T10:31:46;7.40;;;3.13;;
76053;SDS011;64752;48.870;9.082;2023-03-17T10:34:15;7.07;;;3.50;;
76053;SDS011;64752;48.870;9.082;2023-03-17T10:36:42;6.55;;;3.35;;
76053;SDS011;64752;48.870;9.082;2023-03-17T10:39:10;7.28;;;3.28;;
76053;SDS011;64752;48.870;9.082;2023-03-17T10:41:38;5.85;;;3.15;;
76053;SDS011;64752;48.870;9.082;2023-03-17T10:44:07;6.43;;;3.22;;
76053;SDS011;64752;48.870;9.082;2023-03-17T10:46:33;9.70;;;3.15;;
76053;SDS011;64752;48.870;9.082;2023-03-17T10:49:07;8.13;;;3.40;;
76053;SDS011;64752;48.870;9.082;2023-03-17T10:51:34;6.82;;;3.10;;
76053;SDS011;64752;48.870;9.082;2023-03-17T10:54:01;7.47;;;3.05;;
76053;SDS011;64752;48.870;9.082;2023-03-17T10:56:29;8.52;;;3.30;;
76053;SDS011;64752;48.870;9.082;2023-03-17T10:58:57;7.07;;;2.40;;
76053;SDS011;64752;48.870;9.082;2023-03-17T11:03:54;7.10;;;2.77;;
76053;SDS011;64752;48.870;9.082;2023-03-17T11:06:20;8.68;;;3.20;;
76053;SDS011;64752;48.870;9.082;2023-03-17T11:08:54;8.35;;;3.35;;
76053;SDS011;64752;48.870;9.082;2023-03-17T11:11:30;4.80;;;2.80;;
76053;SDS011;64752;48.870;9.082;2023-03-17T11:14:00;4.88;;;2.63;;
76053;SDS011;64752;48.870;9.082;2023-03-17T11:16:27;6.53;;;2.67;;
76053;SDS011;64752;48.870;9.082;2023-03-17T11:18:53;6.43;;;2.90;;
76053;SDS011;64752;48.870;9.082;2023-03-17T11:37:01;5.87;;;2.23;;
76053;SDS011;64752;48.870;9.082;2023-03-17T11:49:45;4.68;;;1.80;;
76053;SDS011;64752;48.870;9.082;2023-03-17T11:54:56;6.07;;;1.85;;
76053;SDS011;64752;48.870;9.082;2023-03-17T11:57:37;6.13;;;1.83;;
76053;SDS011;64752;48.870;9.082;2023-03-17T12:00:05;5.40;;;1.60;;
76053;SDS011;64752;48.870;9.082;2023-03-17T12:05:02;4.70;;;1.80;;
76053;SDS011;64752;48.870;9.082;2023-03-17T12:12:31;4.18;;;1.90;;
76053;SDS011;64752;48.870;9.082;2023-03-17T12:14:58;4.95;;;1.60;;
76053;SDS011;64752;48.870;9.082;2023-03-17T12:17:26;5.32;;;1.75;;
76053;SDS011;64752;48.870;9.082;2023-03-17T12:24:56;4.15;;;1.70;;
76053;SDS011;64752;48.870;9.082;2023-03-17T12:27:30;4.63;;;1.50;;
76053;SDS011;64752;48.870;9.082;2023-03-17T12:32:27;3.38;;;1.63;;
76053;SDS011;64752;48.870;9.082;2023-03-17T12:34:56;2.58;;;1.75;;
76053;SDS011;64752;48.870;9.082;2023-03-17T12:37:22;3.95;;;1.55;;
76053;SDS011;64752;48.870;9.082;2023-03-17T12:40:05;2.40;;;1.40;;
76053;SDS011;64752;48.870;9.082;2023-03-17T12:47:56;4.40;;;1.70;;
76053;SDS011;64752;48.870;9.082;2023-03-17T12:55:37;3.10;;;1.60;;
76053;SDS011;64752;48.870;9.082;2023-03-17T12:58:04;2.27;;;1.50;;
76053;SDS011;64752;48.870;9.082;2023-03-17T13:00:32;3.15;;;1.60;;
76053;SDS011;64752;48.870;9.082;2023-03-17T13:05:35;3.25;;;1.58;;
76053;SDS011;64752;48.870;9.082;2023-03-17T13:08:01;2.30;;;1.63;;
76053;SDS011;64752;48.870;9.082;2023-03-17T13:13:18;5.43;;;1.70;;
76053;SDS011;64752;48.870;9.082;2023-03-17T13:20:37;3.70;;;1.63;;
76053;SDS011;64752;48.870;9.082;2023-03-17T13:25:37;6.57;;;1.80;;
76053;SDS011;64752;48.870;9.082;2023-03-17T13:40:38;4.00;;;1.50;;
76053;SDS011;64752;48.870;9.082;2023-03-17T13:45:43;5.75;;;1.42;;
76053;SDS011;64752;48.870;9.082;2023-03-17T13:50:56;5.93;;;1.70;;
76053;SDS011;64752;48.870;9.082;2023-03-17T13:53:24;4.63;;;1.70;;
76053;SDS011;64752;48.870;9.082;2023-03-17T13:59:23;3.92;;;1.60;;
76053;SDS011;64752;48.870;9.082;2023-03-17T14:01:21;3.45;;;2.00;;
76053;SDS011;64752;48.870;9.082;2023-03-17T14:03:48;4.65;;;1.50;;
76053;SDS011;64752;48.870;9.082;2023-03-17T14:06:14;4.80;;;1.30;;
76053;SDS011;64752;48.870;9.082;2023-03-17T14:08:43;3.05;;;1.50;;
76053;SDS011;64752;48.870;9.082;2023-03-17T14:11:19;4.53;;;1.45;;
76053;SDS011;64752;48.870;9.082;2023-03-17T14:13:55;3.55;;;1.48;;
76053;SDS011;64752;48.870;9.082;2023-03-17T14:16:30;2.03;;;1.63;;
76053;SDS011;64752;48.870;9.082;2023-03-17T14:18:57;4.70;;;1.50;;
76053;SDS011;64752;48.870;9.082;2023-03-17T14:21:28;3.22;;;1.30;;
76053;SDS011;64752;48.870;9.082;2023-03-17T14:24:00;4.82;;;1.55;;
76053;SDS011;64752;48.870;9.082;2023-03-17T14:26:26;3.75;;;1.58;;
76053;SDS011;64752;48.870;9.082;2023-03-17T14:31:20;5.22;;;1.60;;
76053;SDS011;64752;48.870;9.082;2023-03-17T14:33:46;3.53;;;1.48;;
76053;SDS011;64752;48.870;9.082;2023-03-17T14:36:11;3.37;;;1.37;;
76053;SDS011;64752;48.870;9.082;2023-03-17T14:38:38;6.97;;;1.50;;
76053;SDS011;64752;48.870;9.082;2023-03-17T14:41:05;2.45;;;1.35;;
76053;SDS011;64752;48.870;9.082;2023-03-17T14:43:31;3.28;;;1.70;;
76053;SDS011;64752;48.870;9.082;2023-03-17T14:46:03;1.98;;;1.38;;
76053;SDS011;64752;48.870;9.082;2023-03-17T14:48:30;4.45;;;1.63;;
76053;SDS011;64752;48.870;9.082;2023-03-17T14:50:59;4.45;;;2.05;;
76053;SDS011;64752;48.870;9.082;2023-03-17T14:53:29;5.85;;;2.65;;
76053;SDS011;64752;48.870;9.082;2023-03-17T14:55:55;20.05;;;11.95;;
76053;SDS011;64752;48.870;9.082;2023-03-17T14:58:25;25.30;;;13.00;;
76053;SDS011;64752;48.870;9.082;2023-03-17T15:01:35;17.98;;;8.77;;
76053;SDS011;64752;48.870;9.082;2023-03-17T15:03:50;14.88;;;6.80;;
76053;SDS011;64752;48.870;9.082;2023-03-17T15:06:28;26.90;;;12.70;;
76053;SDS011;64752;48.870;9.082;2023-03-17T15:08:58;20.25;;;11.80;;
76053;SDS011;64752;48.870;9.082;2023-03-17T15:11:25;18.25;;;9.52;;
76053;SDS011;64752;48.870;9.082;2023-03-17T15:13:54;12.07;;;6.18;;
76053;SDS011;64752;48.870;9.082;2023-03-17T15:16:22;12.75;;;5.15;;
76053;SDS011;64752;48.870;9.082;2023-03-17T15:18:49;12.52;;;6.22;;
76053;SDS011;64752;48.870;9.082;2023-03-17T15:21:21;16.08;;;8.13;;
76053;SDS011;64752;48.870;9.082;2023-03-17T15:23:46;15.57;;;6.63;;
76053;SDS011;64752;48.870;9.082;2023-03-17T15:26:20;16.83;;;7.30;;
76053;SDS011;64752;48.870;9.082;2023-03-17T15:28:45;17.10;;;7.18;;
76053;SDS011;64752;48.870;9.082;2023-03-17T15:31:12;12.73;;;6.33;;
76053;SDS011;64752;48.870;9.082;2023-03-17T15:33:38;9.38;;;4.38;;
76053;SDS011;64752;48.870;9.082;2023-03-17T15:36:03;6.20;;;2.80;;
76053;SDS011;64752;48.870;9.082;2023-03-17T15:38:29;4.03;;;2.00;;
76053;SDS011;64752;48.870;9.082;2023-03-17T15:40:57;6.85;;;2.28;;
76053;SDS011;64752;48.870;9.082;2023-03-17T15:43:22;4.70;;;1.90;;
76053;SDS011;64752;48.870;9.082;2023-03-17T15:45:50;9.07;;;1.97;;
76053;SDS011;64752;48.870;9.082;2023-03-17T15:48:24;3.85;;;1.90;;
76053;SDS011;64752;48.870;9.082;2023-03-17T15:50:55;4.38;;;1.92;;
76053;SDS011;64752;48.870;9.082;2023-03-17T15:53:22;2.70;;;1.52;;
76053;SDS011;64752;48.870;9.082;2023-03-17T15:55:47;3.60;;;1.80;;
76053;SDS011;64752;48.870;9.082;2023-03-17T15:58:12;5.50;;;1.90;;
76053;SDS011;64752;48.870;9.082;2023-03-17T16:00:38;5.83;;;1.60;;
76053;SDS011;64752;48.870;9.082;2023-03-17T16:05:47;4.85;;;2.00;;
76053;SDS011;64752;48.870;9.082;2023-03-17T16:08:13;5.53;;;2.17;;
76053;SDS011;64752;48.870;9.082;2023-03-17T16:10:38;4.27;;;1.60;;
76053;SDS011;64752;48.870;9.082;2023-03-17T16:13:03;5.77;;;1.83;;
76053;SDS011;64752;48.870;9.082;2023-03-17T16:15:29;6.63;;;1.83;;
76053;SDS011;64752;48.870;9.082;2023-03-17T16:18:03;4.72;;;1.48;;
76053;SDS011;64752;48.870;9.082;2023-03-17T16:20:30;4.78;;;1.98;;
76053;SDS011;64752;48.870;9.082;2023-03-17T16:22:57;5.22;;;1.90;;
76053;SDS011;64752;48.870;9.082;2023-03-17T16:25:28;2.80;;;1.60;;
76053;SDS011;64752;48.870;9.082;2023-03-17T16:27:55;8.52;;;2.08;;
76053;SDS011;64752;48.870;9.082;2023-03-17T16:30:22;5.55;;;2.10;;
76053;SDS011;64752;48.870;9.082;2023-03-17T16:32:48;6.78;;;2.20;;
76053;SDS011;64752;48.870;9.082;2023-03-17T16:35:14;3.13;;;1.53;;
76053;SDS011;64752;48.870;9.082;2023-03-17T16:37:40;9.23;;;2.15;;